createdAt,value
2018-01-10T00:00:03.816Z,11.67
2018-01-10T00:02:31.305Z,13.20
2018-01-10T00:04:58.808Z,10.80
2018-01-10T00:07:26.264Z,12.27
2018-01-10T00:09:53.720Z,12.07
2018-01-10T00:12:21.205Z,12.10
2018-01-10T00:14:48.693Z,12.30
2018-01-10T00:17:16.296Z,11.03
2018-01-10T00:19:43.762Z,11.30
2018-01-10T00:22:11.241Z,11.47
2018-01-10T00:24:39.473Z,11.97
2018-01-10T00:27:07.901Z,10.97
2018-01-10T00:29:36.148Z,11.47
2018-01-10T00:32:03.628Z,11.50
2018-01-10T00:34:31.878Z,11.40
2018-01-10T00:36:59.352Z,10.83
2018-01-10T00:39:26.980Z,10.07
2018-01-10T00:41:54.449Z,10.97
2018-01-10T00:44:21.913Z,11.07
2018-01-10T00:46:49.404Z,11.40
2018-01-10T00:49:17.640Z,11.77
2018-01-10T00:51:45.097Z,10.50
2018-01-10T00:54:12.593Z,11.23
2018-01-10T00:56:40.940Z,11.67
2018-01-10T00:59:09.421Z,11.47
2018-01-10T01:01:36.888Z,13.40
2018-01-10T01:04:04.378Z,12.20
2018-01-10T01:06:31.849Z,11.20
2018-01-10T01:08:59.326Z,11.20
2018-01-10T01:11:26.788Z,11.53
2018-01-10T01:13:54.261Z,12.07
2018-01-10T01:16:21.740Z,11.07
2018-01-10T01:18:49.984Z,12.00
2018-01-10T01:21:17.449Z,11.30
2018-01-10T01:23:44.928Z,11.10
2018-01-10T01:26:12.385Z,11.90
2018-01-10T01:28:40.624Z,11.90
2018-01-10T01:31:08.101Z,12.00
2018-01-10T01:33:35.560Z,12.27
2018-01-10T01:36:03.181Z,10.97
2018-01-10T01:38:30.647Z,12.20
2018-01-10T01:40:58.118Z,12.47
2018-01-10T01:43:25.576Z,11.83
2018-01-10T01:45:53.049Z,11.60
2018-01-10T01:48:21.378Z,12.23
2018-01-10T01:50:48.848Z,11.30
2018-01-10T01:53:16.529Z,12.13
2018-01-10T01:55:44.012Z,11.10
2018-01-10T01:58:12.352Z,11.60
2018-01-10T02:00:39.813Z,11.43
2018-01-10T02:03:07.285Z,11.77
2018-01-10T02:05:35.680Z,11.70
2018-01-10T02:08:04.289Z,11.70
2018-01-10T02:10:31.745Z,11.43
2018-01-10T02:12:59.232Z,11.27
2018-01-10T02:15:26.714Z,11.33
2018-01-10T02:17:54.220Z,11.30
2018-01-10T02:20:21.706Z,11.47
2018-01-10T02:22:49.168Z,10.87
2018-01-10T02:25:17.130Z,11.90
2018-01-10T02:27:44.665Z,11.40
2018-01-10T02:30:12.996Z,10.53
2018-01-10T02:32:40.569Z,11.07
2018-01-10T02:35:08.161Z,10.77
2018-01-10T02:37:35.714Z,12.00
2018-01-10T02:40:03.193Z,11.70
2018-01-10T02:42:38.456Z,10.87
2018-01-10T02:45:05.942Z,10.73
2018-01-10T02:47:34.493Z,11.60
2018-01-10T02:50:01.945Z,10.57
2018-01-10T02:52:29.469Z,11.40
2018-01-10T02:54:57.754Z,11.60
2018-01-10T02:57:25.964Z,11.30
2018-01-10T02:59:53.447Z,11.00
2018-01-10T03:02:20.912Z,11.43
2018-01-10T03:04:49.194Z,10.43
2018-01-10T03:07:17.438Z,10.50
2018-01-10T03:09:45.879Z,10.20
2018-01-10T03:12:13.357Z,11.20
2018-01-10T03:14:40.818Z,10.40
2018-01-10T03:17:08.293Z,11.17
2018-01-10T03:19:36.793Z,9.80
2018-01-10T03:22:05.049Z,10.50
2018-01-10T03:24:34.494Z,10.00
2018-01-10T03:27:01.966Z,10.20
2018-01-10T03:29:29.425Z,10.10
2018-01-10T03:31:56.916Z,9.90
2018-01-10T03:34:24.396Z,9.97
2018-01-10T03:36:52.621Z,9.90
2018-01-10T03:39:20.790Z,10.80
2018-01-10T03:41:48.320Z,10.07
2018-01-10T03:44:16.599Z,9.70
2018-01-10T03:46:44.938Z,10.30
2018-01-10T03:49:13.345Z,9.30
2018-01-10T03:51:41.569Z,10.50
2018-01-10T03:54:09.096Z,9.03
2018-01-10T03:56:36.552Z,8.70
2018-01-10T03:59:04.023Z,10.53
2018-01-10T04:01:32.420Z,10.50
2018-01-10T04:03:59.889Z,9.70
2018-01-10T04:06:28.375Z,9.30
2018-01-10T04:08:55.822Z,9.47
2018-01-10T04:11:23.301Z,9.07
2018-01-10T04:13:50.768Z,9.40
2018-01-10T04:16:20.013Z,8.97
2018-01-10T04:18:47.468Z,10.43
2018-01-10T04:21:15.084Z,9.50
2018-01-10T04:23:43.313Z,9.73
2018-01-10T04:26:11.650Z,9.33
2018-01-10T04:28:39.892Z,8.30
2018-01-10T04:31:07.372Z,8.90
2018-01-10T04:33:35.616Z,8.60
2018-01-10T04:36:03.072Z,9.83
2018-01-10T04:38:30.553Z,8.80
2018-01-10T04:40:58.997Z,7.93
2018-01-10T04:43:26.469Z,8.73
2018-01-10T04:45:55.284Z,8.20
2018-01-10T04:48:23.517Z,8.47
2018-01-10T04:50:51.844Z,8.63
2018-01-10T04:53:20.079Z,8.30
2018-01-10T04:55:47.535Z,8.47
2018-01-10T04:58:16.971Z,8.17
2018-01-10T05:00:45.704Z,7.67
2018-01-10T05:03:13.286Z,7.50
2018-01-10T05:05:41.705Z,7.10
2018-01-10T05:08:09.951Z,6.73
2018-01-10T05:10:37.409Z,7.13
2018-01-10T05:13:04.860Z,6.77
2018-01-10T05:15:32.337Z,6.93
2018-01-10T05:17:59.789Z,7.40
2018-01-10T05:20:27.323Z,7.53
2018-01-10T05:22:55.659Z,7.70
2018-01-10T05:25:23.227Z,7.37
2018-01-10T05:27:51.189Z,7.40
2018-01-10T05:30:18.661Z,7.93
2018-01-10T05:32:46.133Z,7.00
2018-01-10T05:35:13.673Z,6.57
2018-01-10T05:37:41.122Z,5.97
2018-01-10T05:40:08.589Z,6.80
2018-01-10T05:42:36.049Z,7.70
2018-01-10T05:45:03.513Z,6.60
2018-01-10T05:47:30.994Z,6.90
2018-01-10T05:49:58.459Z,6.23
2018-01-10T05:52:26.861Z,6.10
2018-01-10T05:54:55.094Z,6.50
2018-01-10T05:57:22.544Z,7.13
2018-01-10T05:59:50.001Z,6.77
2018-01-10T06:02:17.472Z,7.30
2018-01-10T06:04:44.940Z,6.23
2018-01-10T06:07:13.277Z,7.33
2018-01-10T06:09:40.743Z,7.50
2018-01-10T06:12:09.056Z,6.80
2018-01-10T06:14:36.536Z,6.87
2018-01-10T06:17:05.709Z,7.47
2018-01-10T06:19:33.281Z,6.00
2018-01-10T06:22:02.517Z,6.97
2018-01-10T06:24:30.072Z,6.00
2018-01-10T06:26:57.540Z,6.70
2018-01-10T06:29:25.028Z,6.90
2018-01-10T06:31:52.480Z,6.97
2018-01-10T06:34:19.940Z,7.20
2018-01-10T06:36:47.617Z,6.90
2018-01-10T06:39:15.070Z,6.80
2018-01-10T06:41:42.528Z,7.73
2018-01-10T06:44:09.988Z,7.53
2018-01-10T06:46:37.603Z,7.90
2018-01-10T06:49:05.157Z,7.60
2018-01-10T06:54:06.550Z,7.80
2018-01-10T06:56:34.034Z,7.23
2018-01-10T06:59:02.365Z,8.40
2018-01-10T07:01:29.818Z,7.07
2018-01-10T07:03:58.319Z,8.10
2018-01-10T07:06:26.689Z,7.00
2018-01-10T07:08:54.166Z,7.13
2018-01-10T07:11:21.724Z,7.27
2018-01-10T07:13:49.203Z,7.50
2018-01-10T07:16:17.448Z,6.60
2018-01-10T07:18:46.913Z,6.97
2018-01-10T07:21:14.529Z,7.03
2018-01-10T07:23:42.186Z,7.70
2018-01-10T07:26:09.660Z,7.47
2018-01-10T07:28:37.890Z,6.20
2018-01-10T07:31:05.419Z,7.07
2018-01-10T07:33:32.931Z,6.13
2018-01-10T07:36:00.417Z,5.50
2018-01-10T07:38:28.629Z,5.07
2018-01-10T07:40:56.107Z,5.67
2018-01-10T07:43:23.569Z,5.67
2018-01-10T07:45:51.045Z,5.67
2018-01-10T07:48:18.618Z,5.73
2018-01-10T07:50:46.929Z,5.80
2018-01-10T07:53:14.512Z,5.20
2018-01-10T07:55:42.224Z,5.80
2018-01-10T07:58:11.431Z,4.27
2018-01-10T08:00:39.652Z,4.90
2018-01-10T08:03:07.149Z,4.80
2018-01-10T08:05:36.233Z,4.73
2018-01-10T08:08:04.474Z,4.53
2018-01-10T08:10:31.921Z,4.70
2018-01-10T08:12:59.408Z,4.13
2018-01-10T08:15:27.784Z,4.40
2018-01-10T08:17:55.260Z,3.97
2018-01-10T08:20:22.715Z,5.23
2018-01-10T08:22:50.961Z,4.23
2018-01-10T08:25:18.416Z,4.50
2018-01-10T08:27:45.883Z,4.30
2018-01-10T08:30:13.345Z,4.40
2018-01-10T08:32:40.882Z,4.30
2018-01-10T08:35:08.344Z,4.53
2018-01-10T08:37:35.800Z,3.93
2018-01-10T08:40:03.299Z,4.50
2018-01-10T08:42:30.774Z,3.50
2018-01-10T08:44:58.221Z,3.90
2018-01-10T08:47:26.437Z,4.00
2018-01-10T08:49:54.986Z,3.80
2018-01-10T08:52:22.592Z,3.83
2018-01-10T08:54:50.097Z,3.80
2018-01-10T08:57:18.530Z,4.10
2018-01-10T08:59:45.985Z,3.53
2018-01-10T09:02:15.254Z,3.57
2018-01-10T09:04:42.716Z,3.27
2018-01-10T09:07:10.297Z,3.40
2018-01-10T09:09:37.779Z,3.80
2018-01-10T09:12:05.274Z,3.30
2018-01-10T09:14:33.597Z,3.30
2018-01-10T09:17:01.068Z,3.30
2018-01-10T09:19:28.534Z,3.23
2018-01-10T09:21:56.010Z,3.57
2018-01-10T09:24:24.230Z,3.93
2018-01-10T09:26:52.588Z,3.70
2018-01-10T09:29:20.184Z,3.47
2018-01-10T09:31:47.653Z,3.73
2018-01-10T09:34:15.557Z,3.80
2018-01-10T09:36:43.013Z,3.40
2018-01-10T09:39:10.490Z,3.80
2018-01-10T09:41:37.956Z,3.53
2018-01-10T09:44:05.424Z,3.40
2018-01-10T09:46:32.904Z,3.73
2018-01-10T09:49:00.366Z,3.07
2018-01-10T09:51:27.870Z,3.63
2018-01-10T09:53:55.337Z,3.17
2018-01-10T09:56:23.630Z,3.97
2018-01-10T09:58:52.052Z,3.30
2018-01-10T10:01:20.450Z,3.60
2018-01-10T10:03:47.901Z,3.70
2018-01-10T10:06:15.380Z,3.83
2018-01-10T10:08:42.816Z,3.47
2018-01-10T10:11:11.261Z,3.60
2018-01-10T10:13:38.718Z,4.17
2018-01-10T10:16:06.177Z,4.37
2018-01-10T10:18:34.416Z,3.97
2018-01-10T10:21:01.883Z,3.80
2018-01-10T10:23:29.345Z,3.47
2018-01-10T10:25:57.807Z,3.90
2018-01-10T10:28:25.292Z,3.57
2018-01-10T10:30:54.251Z,4.07
2018-01-10T10:33:21.718Z,3.90
2018-01-10T10:35:49.180Z,4.30
2018-01-10T10:38:16.652Z,3.80
2018-01-10T10:40:44.126Z,3.90
2018-01-10T10:43:12.376Z,3.93
2018-01-10T10:45:39.850Z,4.07
2018-01-10T10:48:07.296Z,4.90
2018-01-10T10:50:34.757Z,3.97
2018-01-10T10:53:02.304Z,4.27
2018-01-10T10:55:29.757Z,3.27
2018-01-10T10:57:57.228Z,3.77
2018-01-10T11:00:27.508Z,3.77
2018-01-10T11:02:55.023Z,4.03
2018-01-10T11:05:22.425Z,3.57
2018-01-10T11:07:51.762Z,3.40
2018-01-10T11:10:19.315Z,4.40
2018-01-10T11:12:47.585Z,3.37
2018-01-10T11:15:15.065Z,3.30
2018-01-10T11:17:43.472Z,4.10
2018-01-10T11:20:11.782Z,3.53
2018-01-10T11:22:39.268Z,3.63
2018-01-10T11:25:07.964Z,3.43
2018-01-10T11:27:36.225Z,3.77
2018-01-10T11:30:03.705Z,3.33
2018-01-10T11:32:31.161Z,3.33
2018-01-10T11:34:59.411Z,3.83
2018-01-10T11:37:26.892Z,3.27
2018-01-10T11:39:55.153Z,3.27
2018-01-10T11:42:22.612Z,3.80
2018-01-10T11:44:50.125Z,3.13
2018-01-10T11:47:17.865Z,2.97
2018-01-10T11:49:45.519Z,3.30
2018-01-10T11:52:13.030Z,2.87
2018-01-10T11:54:40.515Z,3.33
2018-01-10T11:57:08.751Z,2.90
2018-01-10T11:59:36.266Z,2.70
2018-01-10T12:02:04.496Z,3.07
2018-01-10T12:04:32.918Z,3.20
2018-01-10T12:07:02.021Z,3.50
2018-01-10T12:09:30.425Z,3.07
2018-01-10T12:11:58.005Z,3.20
2018-01-10T12:14:25.580Z,2.90
2018-01-10T12:16:53.064Z,3.20
2018-01-10T12:19:22.045Z,3.90
2018-01-10T12:21:49.512Z,3.70
2018-01-10T12:24:17.757Z,3.23
2018-01-10T12:26:45.216Z,3.83
2018-01-10T12:29:13.745Z,3.20
2018-01-10T12:31:41.989Z,3.40
2018-01-10T12:34:09.502Z,3.20
2018-01-10T12:36:36.968Z,3.20
2018-01-10T12:39:04.532Z,3.23
2018-01-10T12:41:32.033Z,2.70
2018-01-10T12:44:00.257Z,3.03
2018-01-10T12:46:27.729Z,3.37
2018-01-10T12:48:55.190Z,3.10
2018-01-10T12:51:23.673Z,4.00
2018-01-10T12:53:51.156Z,3.47
2018-01-10T12:56:19.372Z,3.40
2018-01-10T12:58:46.831Z,3.67
2018-01-10T13:01:14.296Z,3.17
2018-01-10T13:03:41.782Z,3.67
2018-01-10T13:06:09.247Z,4.77
2018-01-10T13:08:36.733Z,3.27
2018-01-10T13:11:04.971Z,3.70
2018-01-10T13:13:32.624Z,3.70
2018-01-10T13:16:00.123Z,3.77
2018-01-10T13:18:28.366Z,2.90
2018-01-10T13:20:55.881Z,3.50
2018-01-10T13:23:23.351Z,3.67
2018-01-10T13:25:50.948Z,3.03
2018-01-10T13:28:18.507Z,3.50
2018-01-10T13:30:46.085Z,3.37
2018-01-10T13:33:14.331Z,3.60
2018-01-10T13:35:41.920Z,3.53
2018-01-10T13:38:10.147Z,3.17
2018-01-10T13:40:37.613Z,3.83
2018-01-10T13:43:05.099Z,3.40
2018-01-10T13:45:32.560Z,3.43
2018-01-10T13:48:01.663Z,4.07
2018-01-10T13:50:29.907Z,3.03
2018-01-10T13:52:57.368Z,4.50
2018-01-10T13:55:24.905Z,3.87
2018-01-10T13:57:52.369Z,3.97
2018-01-10T14:00:20.813Z,4.40
2018-01-10T14:02:48.280Z,4.10
2018-01-10T14:05:15.876Z,3.70
2018-01-10T14:07:43.293Z,3.70
2018-01-10T14:10:10.768Z,4.27
2018-01-10T14:12:39.206Z,3.87
2018-01-10T14:15:08.383Z,4.13
2018-01-10T14:17:35.944Z,4.70
2018-01-10T14:20:04.190Z,4.67
2018-01-10T14:22:32.496Z,3.53
2018-01-10T14:24:59.950Z,4.60
2018-01-10T14:27:27.420Z,4.03
2018-01-10T14:29:56.679Z,4.13
2018-01-10T14:32:24.152Z,4.20
2018-01-10T14:34:51.642Z,4.07
2018-01-10T14:37:19.165Z,4.23
2018-01-10T14:39:46.642Z,4.73
2018-01-10T14:42:14.094Z,4.67
2018-01-10T14:44:42.721Z,5.00
2018-01-10T14:47:10.178Z,4.53
2018-01-10T14:49:37.644Z,4.50
2018-01-10T14:52:05.117Z,4.70
2018-01-10T14:54:33.437Z,5.00
2018-01-10T14:57:01.669Z,4.73
2018-01-10T14:59:29.120Z,4.23
2018-01-10T15:01:56.604Z,4.00
2018-01-10T15:04:24.077Z,3.77
2018-01-10T15:06:53.250Z,5.07
2018-01-10T15:09:20.719Z,4.20
2018-01-10T15:11:49.623Z,3.57
2018-01-10T15:14:17.092Z,4.80
2018-01-10T15:16:45.308Z,4.13
2018-01-10T15:19:12.777Z,4.10
2018-01-10T15:21:40.292Z,4.30
2018-01-10T15:24:07.783Z,4.53
2018-01-10T15:26:36.198Z,4.53
2018-01-10T15:29:05.854Z,4.30
2018-01-10T15:31:34.229Z,4.03
2018-01-10T15:34:01.851Z,3.83
2018-01-10T15:36:30.376Z,4.20
2018-01-10T15:38:57.887Z,4.50
2018-01-10T15:41:26.152Z,4.30
2018-01-10T15:43:53.968Z,3.63
2018-01-10T15:46:21.482Z,3.93
2018-01-10T15:48:49.783Z,3.40
2018-01-10T15:51:18.021Z,3.63
2018-01-10T15:53:45.580Z,3.07
2018-01-10T15:56:13.281Z,3.27
2018-01-10T15:58:40.984Z,3.00
2018-01-10T16:01:08.485Z,3.13
2018-01-10T16:03:37.602Z,3.20
2018-01-10T16:06:06.099Z,3.60
2018-01-10T16:08:38.916Z,3.27
2018-01-10T16:11:07.403Z,2.83
2018-01-10T16:13:35.040Z,2.57
2018-01-10T16:16:02.626Z,3.33
2018-01-10T16:18:31.136Z,2.73
2018-01-10T16:20:59.369Z,3.80
2018-01-10T16:23:26.864Z,3.30
2018-01-10T16:25:55.112Z,3.57
2018-01-10T16:28:22.590Z,3.67
2018-01-10T16:30:50.822Z,3.80
2018-01-10T16:33:18.358Z,4.07
2018-01-10T16:35:45.816Z,3.70
2018-01-10T16:38:13.333Z,4.00
2018-01-10T16:40:41.584Z,3.73
2018-01-10T16:43:09.133Z,3.00
2018-01-10T16:45:37.754Z,3.70
2018-01-10T16:48:07.157Z,3.60
2018-01-10T16:50:35.388Z,3.20
2018-01-10T16:53:02.934Z,4.37
2018-01-10T16:55:30.413Z,3.97
2018-01-10T16:57:57.876Z,3.73
2018-01-10T17:00:25.354Z,3.93
2018-01-10T17:02:54.044Z,3.50
2018-01-10T17:05:22.293Z,3.20
2018-01-10T17:07:50.018Z,3.03
2018-01-10T17:10:17.500Z,3.20
2018-01-10T17:12:44.969Z,3.70
2018-01-10T17:15:12.429Z,2.90
2018-01-10T17:17:39.928Z,3.83
2018-01-10T17:20:07.489Z,3.60
2018-01-10T17:22:34.960Z,3.50
2018-01-10T17:25:02.421Z,3.70
2018-01-10T17:27:29.892Z,3.10
2018-01-10T17:29:57.353Z,3.03
2018-01-10T17:32:24.816Z,3.30
2018-01-10T17:34:52.313Z,3.70
2018-01-10T17:37:20.538Z,3.43
2018-01-10T17:39:49.028Z,3.10
2018-01-10T17:42:16.515Z,3.57
2018-01-10T17:44:43.972Z,4.03
2018-01-10T17:47:11.460Z,3.30
2018-01-10T17:49:39.132Z,3.30
2018-01-10T17:52:06.601Z,3.30
2018-01-10T17:54:34.070Z,3.30
2018-01-10T17:57:01.541Z,3.03
2018-01-10T17:59:29.013Z,3.30
2018-01-10T18:01:56.606Z,3.80
2018-01-10T18:04:24.099Z,3.20
2018-01-10T18:06:51.566Z,3.20
2018-01-10T18:09:19.043Z,3.50
2018-01-10T18:11:46.720Z,3.27
2018-01-10T18:14:14.961Z,2.80
2018-01-10T18:16:45.466Z,2.90
2018-01-10T18:19:13.673Z,2.80
2018-01-10T18:21:41.144Z,2.83
2018-01-10T18:24:08.609Z,2.70
2018-01-10T18:26:36.076Z,3.43
2018-01-10T18:29:05.152Z,3.30
2018-01-10T18:31:32.622Z,3.20
2018-01-10T18:34:01.091Z,3.90
2018-01-10T18:36:28.591Z,3.07
2018-01-10T18:38:56.049Z,3.57
2018-01-10T18:41:23.536Z,3.60
2018-01-10T18:43:51.934Z,3.30
2018-01-10T18:46:19.401Z,3.40
2018-01-10T18:48:46.856Z,4.70
2018-01-10T18:51:14.325Z,3.70
2018-01-10T18:53:42.542Z,3.80
2018-01-10T18:56:09.993Z,3.73
2018-01-10T18:58:37.488Z,4.20
2018-01-10T19:01:04.963Z,4.47
2018-01-10T19:03:34.073Z,3.67
2018-01-10T19:06:02.322Z,3.60
2018-01-10T19:08:29.790Z,3.60
2018-01-10T19:10:57.244Z,3.97
2018-01-10T19:13:25.495Z,3.07
2018-01-10T19:15:53.100Z,4.30
2018-01-10T19:18:21.357Z,3.97
2018-01-10T19:20:48.873Z,3.93
2018-01-10T19:23:16.366Z,4.47
2018-01-10T19:25:44.642Z,4.17
2018-01-10T19:28:12.221Z,4.17
2018-01-10T19:30:41.582Z,3.93
2018-01-10T19:33:09.057Z,4.57
2018-01-10T19:35:36.571Z,4.77
2018-01-10T19:38:04.072Z,4.73
2018-01-10T19:43:06.184Z,5.10
2018-01-10T19:45:34.560Z,4.80
2018-01-10T19:48:02.789Z,4.63
2018-01-10T19:50:30.325Z,5.67
2018-01-10T19:52:57.778Z,5.33
2018-01-10T19:55:25.259Z,5.10
2018-01-10T19:57:53.577Z,5.53
2018-01-10T20:02:57.168Z,5.37
2018-01-10T20:05:24.688Z,5.00
2018-01-10T20:07:52.348Z,5.20
2018-01-10T20:10:20.727Z,5.17
2018-01-10T20:12:48.197Z,5.30
2018-01-10T20:15:15.694Z,4.97
2018-01-10T20:17:43.154Z,4.60
2018-01-10T20:20:12.253Z,5.57
2018-01-10T20:22:41.205Z,5.00
2018-01-10T20:25:08.709Z,4.83
2018-01-10T20:27:36.965Z,5.27
2018-01-10T20:30:05.240Z,5.10
2018-01-10T20:32:32.739Z,6.10
2018-01-10T20:35:00.960Z,5.43
2018-01-10T20:37:28.422Z,4.40
2018-01-10T20:39:55.901Z,4.40
2018-01-10T20:42:24.150Z,4.60
2018-01-10T20:44:51.621Z,4.83
2018-01-10T20:47:19.098Z,5.00
2018-01-10T20:49:47.320Z,4.30
2018-01-10T20:52:14.815Z,4.03
2018-01-10T20:54:43.334Z,4.43
2018-01-10T20:57:10.940Z,4.37
2018-01-10T20:59:38.409Z,4.17
2018-01-10T21:02:05.897Z,4.70
2018-01-10T21:04:33.349Z,4.33
2018-01-10T21:07:00.822Z,4.23
2018-01-10T21:09:28.283Z,4.30
2018-01-10T21:11:55.773Z,4.10
2018-01-10T21:14:23.254Z,5.00
2018-01-10T21:16:51.729Z,4.90
2018-01-10T21:19:20.053Z,5.20
2018-01-10T21:21:47.507Z,5.70
2018-01-10T21:24:16.027Z,4.70
2018-01-10T21:26:43.717Z,5.00
2018-01-10T21:29:11.953Z,5.50
2018-01-10T21:31:39.418Z,5.50
2018-01-10T21:34:06.901Z,5.30
2018-01-10T21:36:35.543Z,5.10
2018-01-10T21:39:03.019Z,5.13
2018-01-10T21:41:30.987Z,5.30
2018-01-10T21:43:58.461Z,5.20
2018-01-10T21:46:26.742Z,4.93
2018-01-10T21:48:54.995Z,4.60
2018-01-10T21:51:23.396Z,5.83
2018-01-10T21:53:51.656Z,5.50
2018-01-10T21:56:19.297Z,4.90
2018-01-10T21:58:46.801Z,5.33
2018-01-10T22:01:15.191Z,4.90
2018-01-10T22:03:43.495Z,5.10
2018-01-10T22:06:12.125Z,5.60
2018-01-10T22:08:39.804Z,5.43
2018-01-10T22:11:08.194Z,5.10
2018-01-10T22:13:35.726Z,5.90
2018-01-10T22:16:03.952Z,5.83
2018-01-10T22:18:31.433Z,5.43
2018-01-10T22:20:58.892Z,5.20
2018-01-10T22:23:26.374Z,6.33
2018-01-10T22:25:53.839Z,6.00
2018-01-10T22:28:21.309Z,5.50
2018-01-10T22:30:49.548Z,5.90
2018-01-10T22:33:17.113Z,5.50
2018-01-10T22:35:44.582Z,5.97
2018-01-10T22:38:12.808Z,6.03
2018-01-10T22:40:41.616Z,6.30
2018-01-10T22:43:09.102Z,6.70
2018-01-10T22:45:36.581Z,6.50
2018-01-10T22:48:04.816Z,6.27
2018-01-10T22:50:32.305Z,6.40
2018-01-10T22:53:00.684Z,6.60
2018-01-10T22:55:29.006Z,6.90
2018-01-10T22:57:56.474Z,6.40
2018-01-10T23:00:25.014Z,6.73
2018-01-10T23:02:52.492Z,6.70
2018-01-10T23:05:20.967Z,6.47
2018-01-10T23:07:48.425Z,7.13
2018-01-10T23:10:15.912Z,6.47
2018-01-10T23:12:43.358Z,7.70
2018-01-10T23:15:10.816Z,6.80
2018-01-10T23:17:38.279Z,6.40
2018-01-10T23:20:05.732Z,6.80
2018-01-10T23:22:33.206Z,5.33
2018-01-10T23:25:00.713Z,6.90
2018-01-10T23:27:29.012Z,6.40
2018-01-10T23:29:56.495Z,6.87
2018-01-10T23:32:23.953Z,6.40
2018-01-10T23:34:51.410Z,7.10
2018-01-10T23:37:18.875Z,5.47
2018-01-10T23:39:47.375Z,6.47
2018-01-10T23:42:15.781Z,5.77
2018-01-10T23:44:43.252Z,6.30
2018-01-10T23:47:10.752Z,5.80
2018-01-10T23:49:38.209Z,6.07
2018-01-10T23:52:05.664Z,6.53
2018-01-10T23:54:34.906Z,6.13
2018-01-10T23:57:03.357Z,6.27
2018-01-10T23:59:31.673Z,6.00
